createdAt,value
2022-11-29T00:01:31.917Z,22.23
2022-11-29T00:03:59.331Z,24.50
2022-11-29T00:06:28.535Z,24.53
2022-11-29T00:08:56.937Z,24.13
2022-11-29T00:11:48.729Z,23.50
2022-11-29T00:14:18.092Z,22.77
2022-11-29T00:16:45.746Z,25.40
2022-11-29T00:19:13.515Z,22.33
2022-11-29T00:21:40.245Z,23.57
2022-11-29T00:24:07.776Z,23.17
2022-11-29T00:26:34.624Z,21.77
2022-11-29T00:29:01.363Z,22.17
2022-11-29T00:31:30.956Z,23.87
2022-11-29T00:34:00.325Z,22.50
2022-11-29T00:36:27.930Z,21.23
2022-11-29T00:38:54.647Z,24.00
2022-11-29T00:41:21.593Z,21.97
2022-11-29T00:43:48.424Z,22.93
2022-11-29T00:46:15.473Z,21.20
2022-11-29T00:48:42.211Z,21.90
2022-11-29T00:51:08.900Z,21.90
2022-11-29T00:53:36.744Z,21.50
2022-11-29T00:56:05.184Z,20.80
2022-11-29T00:58:32.530Z,21.47
2022-11-29T01:00:59.600Z,21.77
2022-11-29T01:03:26.361Z,20.67
2022-11-29T01:05:53.117Z,20.60
2022-11-29T01:08:20.058Z,20.13
2022-11-29T01:10:46.765Z,20.40
2022-11-29T01:13:14.614Z,19.90
2022-11-29T01:15:42.199Z,20.70
2022-11-29T01:18:08.988Z,22.30
2022-11-29T01:20:35.693Z,21.37
2022-11-29T01:23:02.373Z,20.63
2022-11-29T01:25:29.552Z,20.50
2022-11-29T01:27:56.216Z,21.00
2022-11-29T01:30:23.021Z,21.40
2022-11-29T01:32:49.809Z,21.20
2022-11-29T01:35:16.556Z,19.73
2022-11-29T01:37:43.237Z,21.03
2022-11-29T01:40:10.284Z,21.90
2022-11-29T01:42:36.944Z,20.73
2022-11-29T01:45:25.182Z,21.40
2022-11-29T01:47:56.892Z,21.70
2022-11-29T01:50:23.786Z,20.07
2022-11-29T01:52:50.734Z,20.63
2022-11-29T01:55:18.368Z,19.93
2022-11-29T01:57:45.696Z,21.13
2022-11-29T02:00:16.008Z,21.37
2022-11-29T02:02:47.290Z,20.97
2022-11-29T02:05:16.676Z,21.63
2022-11-29T02:07:45.999Z,20.27
2022-11-29T02:10:15.706Z,21.23
2022-11-29T02:12:58.989Z,21.23
2022-11-29T02:15:35.650Z,21.30
2022-11-29T02:18:11.597Z,21.00
2022-11-29T02:20:51.465Z,21.17
2022-11-29T02:24:06.249Z,20.40
2022-11-29T02:26:57.477Z,20.60
2022-11-29T02:30:06.169Z,19.63
2022-11-29T02:33:06.630Z,20.43
2022-11-29T02:35:55.171Z,19.97
2022-11-29T02:38:30.461Z,20.27
2022-11-29T02:41:13.908Z,20.30
2022-11-29T02:43:58.683Z,20.30
2022-11-29T02:47:04.024Z,19.87
2022-11-29T02:49:51.389Z,20.90
2022-11-29T02:52:26.605Z,21.17
2022-11-29T02:55:09.541Z,20.03
2022-11-29T02:58:08.599Z,20.30
2022-11-29T03:00:43.714Z,20.80
2022-11-29T03:03:23.914Z,20.23
2022-11-29T03:06:17.609Z,21.17
2022-11-29T03:08:59.298Z,19.73
2022-11-29T03:11:29.121Z,19.53
2022-11-29T03:14:09.702Z,20.17
2022-11-29T03:17:10.503Z,18.77
2022-11-29T03:19:58.772Z,18.83
2022-11-29T03:22:48.051Z,21.47
2022-11-29T03:25:45.999Z,21.77
2022-11-29T03:28:25.149Z,22.70
2022-11-29T03:31:17.935Z,23.13
2022-11-29T03:33:50.040Z,24.53
2022-11-29T03:36:42.192Z,23.30
2022-11-29T03:39:18.553Z,23.10
2022-11-29T03:42:11.697Z,24.20
2022-11-29T03:44:46.831Z,22.57
2022-11-29T03:47:17.188Z,22.97
2022-11-29T03:49:54.769Z,22.10
2022-11-29T03:52:52.164Z,21.67
2022-11-29T03:55:28.694Z,21.17
2022-11-29T03:58:01.272Z,21.90
2022-11-29T04:00:54.886Z,21.13
2022-11-29T04:03:59.850Z,20.30
2022-11-29T04:06:39.284Z,20.27
2022-11-29T04:09:27.522Z,21.63
2022-11-29T04:12:03.086Z,22.60
2022-11-29T04:14:54.821Z,20.37
2022-11-29T04:17:43.293Z,20.37
2022-11-29T04:20:09.948Z,21.60
2022-11-29T04:23:03.235Z,19.70
2022-11-29T04:25:53.423Z,21.33
2022-11-29T04:28:38.270Z,20.83
2022-11-29T04:31:32.068Z,21.77
2022-11-29T04:34:20.205Z,20.23
2022-11-29T04:36:52.612Z,22.17
2022-11-29T04:39:41.092Z,20.47
2022-11-29T04:42:10.740Z,22.33
2022-11-29T04:44:43.497Z,21.50
2022-11-29T04:47:27.667Z,21.47
2022-11-29T04:50:37.895Z,20.27
2022-11-29T04:53:13.452Z,20.97
2022-11-29T04:55:51.165Z,20.57
2022-11-29T04:58:40.881Z,21.13
2022-11-29T05:01:24.522Z,21.90
2022-11-29T05:03:57.052Z,21.43
2022-11-29T05:06:42.342Z,20.73
2022-11-29T05:09:34.524Z,20.97
2022-11-29T05:12:42.941Z,21.63
2022-11-29T05:15:47.118Z,20.70
2022-11-29T05:18:39.757Z,20.93
2022-11-29T05:21:19.268Z,19.90
2022-11-29T05:24:15.489Z,21.80
2022-11-29T05:27:08.794Z,20.93
2022-11-29T05:29:59.357Z,23.80
2022-11-29T05:32:26.984Z,21.00
2022-11-29T05:35:15.373Z,20.33
2022-11-29T05:37:56.856Z,20.27
2022-11-29T05:40:50.852Z,22.03
2022-11-29T05:43:17.475Z,21.10
2022-11-29T05:46:02.836Z,21.90
2022-11-29T05:48:38.281Z,23.40
2022-11-29T05:51:07.740Z,20.93
2022-11-29T05:53:47.916Z,21.47
2022-11-29T05:56:34.307Z,22.97
2022-11-29T05:59:08.143Z,23.13
2022-11-29T06:01:46.809Z,22.80
2022-11-29T06:04:33.234Z,21.40
2022-11-29T06:07:18.188Z,21.10
2022-11-29T06:09:52.828Z,21.83
2022-11-29T06:12:24.809Z,21.80
2022-11-29T06:15:20.899Z,22.87
2022-11-29T06:17:59.511Z,21.63
2022-11-29T06:20:42.185Z,20.97
2022-11-29T06:23:29.157Z,22.53
2022-11-29T06:26:04.080Z,22.33
2022-11-29T06:28:49.156Z,22.67
2022-11-29T06:31:39.480Z,21.67
2022-11-29T06:34:40.421Z,21.73
2022-11-29T06:37:23.842Z,21.77
2022-11-29T06:39:50.852Z,22.40
2022-11-29T06:42:17.704Z,24.93
2022-11-29T06:44:45.011Z,24.67
2022-11-29T06:47:42.164Z,24.83
2022-11-29T06:50:28.460Z,23.10
2022-11-29T06:53:24.572Z,22.83
2022-11-29T06:56:18.472Z,23.50
2022-11-29T06:59:12.188Z,24.37
2022-11-29T07:01:53.717Z,24.97
2022-11-29T07:04:30.537Z,23.87
2022-11-29T07:06:57.588Z,24.43
2022-11-29T07:09:30.503Z,24.67
2022-11-29T07:11:57.619Z,24.73
2022-11-29T07:14:24.716Z,24.90
2022-11-29T07:17:09.667Z,25.13
2022-11-29T07:20:01.227Z,24.00
2022-11-29T07:22:49.172Z,24.63
2022-11-29T07:25:25.534Z,25.40
2022-11-29T07:28:01.214Z,24.70
2022-11-29T07:30:47.497Z,26.17
2022-11-29T07:33:26.236Z,26.67
2022-11-29T07:36:14.473Z,26.13
2022-11-29T07:39:06.298Z,28.17
2022-11-29T07:41:42.213Z,25.23
2022-11-29T07:44:21.310Z,26.03
2022-11-29T07:46:48.031Z,26.00
2022-11-29T07:49:14.836Z,26.73
2022-11-29T07:51:41.850Z,27.33
2022-11-29T07:54:10.996Z,26.30
2022-11-29T07:56:37.674Z,27.90
2022-11-29T07:59:04.539Z,26.57
2022-11-29T08:01:31.440Z,27.53
2022-11-29T08:03:58.112Z,27.13
2022-11-29T08:06:26.204Z,26.97
2022-11-29T08:08:52.953Z,26.63
2022-11-29T08:11:19.607Z,27.00
2022-11-29T08:13:46.271Z,29.73
2022-11-29T08:16:19.050Z,27.50
2022-11-29T08:18:45.807Z,26.37
2022-11-29T08:21:17.934Z,26.53
2022-11-29T08:23:48.906Z,27.20
2022-11-29T08:26:17.460Z,27.10
2022-11-29T08:28:44.710Z,28.07
2022-11-29T08:31:13.057Z,26.03
2022-11-29T08:33:42.374Z,26.50
2022-11-29T08:36:15.264Z,27.07
2022-11-29T08:38:41.969Z,27.83
2022-11-29T08:41:10.959Z,29.00
2022-11-29T08:43:37.700Z,27.07
2022-11-29T08:46:04.443Z,28.20
2022-11-29T08:48:31.368Z,28.33
2022-11-29T08:50:58.335Z,29.70
2022-11-29T08:53:44.769Z,29.10
2022-11-29T08:56:53.460Z,29.93
2022-11-29T08:59:01.035Z,28.73
2022-11-29T09:01:29.388Z,30.30
2022-11-29T09:04:07.197Z,30.60
2022-11-29T09:06:40.154Z,28.37
2022-11-29T09:09:07.245Z,31.73
2022-11-29T09:11:35.701Z,29.37
2022-11-29T09:14:05.636Z,30.23
2022-11-29T09:16:35.589Z,30.83
2022-11-29T09:19:03.452Z,31.30
2022-11-29T09:21:32.612Z,29.57
2022-11-29T09:24:01.293Z,31.77
2022-11-29T09:26:31.217Z,30.23
2022-11-29T09:29:03.840Z,30.30
2022-11-29T09:31:32.224Z,31.00
2022-11-29T09:33:59.164Z,30.20
2022-11-29T09:36:28.754Z,30.90
2022-11-29T09:38:56.645Z,30.97
2022-11-29T09:41:45.588Z,31.23
2022-11-29T09:44:52.720Z,30.63
2022-11-29T09:47:28.236Z,30.70
2022-11-29T09:50:21.277Z,31.93
2022-11-29T09:53:09.215Z,31.03
2022-11-29T09:55:58.580Z,32.63
2022-11-29T09:58:38.205Z,30.93
2022-11-29T10:01:09.153Z,31.33
2022-11-29T10:03:42.509Z,31.47
2022-11-29T10:06:19.933Z,32.53
2022-11-29T10:08:54.216Z,32.63
2022-11-29T10:11:33.769Z,32.93
2022-11-29T10:14:09.384Z,33.67
2022-11-29T10:16:57.508Z,32.00
2022-11-29T10:19:36.083Z,30.33
2022-11-29T10:22:07.968Z,32.40
2022-11-29T10:28:13.149Z,32.43
2022-11-29T10:38:31.771Z,32.67
2022-11-29T10:44:39.064Z,31.93
2022-11-29T10:47:13.725Z,32.50
2022-11-29T10:52:48.869Z,31.27
2022-11-29T11:08:02.035Z,32.00
2022-11-29T11:10:21.045Z,31.03
2022-11-29T11:16:37.436Z,31.50
2022-11-29T11:19:31.463Z,31.33
2022-11-29T11:22:00.621Z,32.13
2022-11-29T11:24:29.942Z,32.70
2022-11-29T11:26:57.065Z,32.03
2022-11-29T11:29:28.284Z,32.07
2022-11-29T11:31:57.810Z,28.77
2022-11-29T11:34:25.400Z,30.93
2022-11-29T11:36:53.564Z,30.80
2022-11-29T11:39:24.483Z,31.27
2022-11-29T11:42:10.677Z,31.60
2022-11-29T11:44:50.047Z,31.40
2022-11-29T11:47:18.860Z,32.87
2022-11-29T11:49:53.473Z,31.03
2022-11-29T11:52:53.835Z,31.63
2022-11-29T11:55:32.550Z,30.70
2022-11-29T11:58:09.377Z,31.30
2022-11-29T12:01:06.191Z,31.60
2022-11-29T12:03:40.341Z,30.90
2022-11-29T12:06:43.590Z,31.10
2022-11-29T12:09:28.871Z,29.43
2022-11-29T12:12:00.213Z,30.73
2022-11-29T12:14:36.521Z,30.83
2022-11-29T12:17:20.601Z,31.67
2022-11-29T12:19:59.581Z,29.77
2022-11-29T12:22:33.773Z,28.07
2022-11-29T12:25:04.889Z,29.70
2022-11-29T12:27:34.049Z,31.20
2022-11-29T12:30:03.080Z,30.53
2022-11-29T12:33:11.979Z,30.30
2022-11-29T12:35:52.373Z,30.93
2022-11-29T12:38:40.761Z,31.87
2022-11-29T12:41:40.192Z,31.03
2022-11-29T12:44:38.058Z,31.33
2022-11-29T12:47:36.443Z,30.20
2022-11-29T12:50:08.846Z,30.47
2022-11-29T12:53:01.433Z,30.77
2022-11-29T12:55:52.387Z,30.37
2022-11-29T12:58:30.632Z,28.77
2022-11-29T13:01:12.532Z,29.70
2022-11-29T13:03:51.135Z,31.37
2022-11-29T13:06:28.751Z,29.07
2022-11-29T13:09:42.380Z,30.37
2022-11-29T13:12:33.638Z,29.10
2022-11-29T13:15:06.632Z,30.93
2022-11-29T13:17:39.625Z,29.40
2022-11-29T13:20:28.483Z,29.97
2022-11-29T13:23:15.437Z,30.00
2022-11-29T13:25:50.775Z,31.17
2022-11-29T13:28:29.654Z,31.73
2022-11-29T13:31:07.779Z,32.03
2022-11-29T13:34:12.219Z,29.70
2022-11-29T13:37:04.636Z,28.67
2022-11-29T13:39:31.339Z,29.50
2022-11-29T13:42:45.988Z,29.70
2022-11-29T13:45:24.093Z,31.13
2022-11-29T13:48:00.403Z,28.93
2022-11-29T13:50:39.760Z,30.80
2022-11-29T13:53:15.285Z,29.90
2022-11-29T13:56:01.309Z,31.17
2022-11-29T13:58:28.071Z,31.57
2022-11-29T14:01:01.339Z,30.93
2022-11-29T14:04:00.309Z,29.00
2022-11-29T14:06:38.842Z,29.03
2022-11-29T14:09:23.331Z,30.40
2022-11-29T14:11:57.502Z,31.37
2022-11-29T14:14:52.341Z,30.50
2022-11-29T14:17:52.017Z,28.53
2022-11-29T14:20:25.414Z,28.67
2022-11-29T14:23:31.891Z,31.23
2022-11-29T14:25:58.533Z,30.80
2022-11-29T14:28:32.943Z,29.20
2022-11-29T14:31:01.961Z,31.07
2022-11-29T14:33:56.564Z,32.47
2022-11-29T14:36:54.806Z,29.30
2022-11-29T14:39:35.618Z,30.70
2022-11-29T14:42:18.773Z,29.87
2022-11-29T14:44:51.238Z,30.67
2022-11-29T14:47:29.885Z,29.13
2022-11-29T14:49:59.226Z,29.93
2022-11-29T14:52:25.996Z,29.73
2022-11-29T14:55:00.760Z,30.60
2022-11-29T14:57:55.284Z,30.30
2022-11-29T15:00:25.945Z,30.57
2022-11-29T15:02:55.407Z,31.67
2022-11-29T15:05:32.193Z,32.33
2022-11-29T15:08:16.270Z,30.60
2022-11-29T15:10:51.070Z,32.77
2022-11-29T15:13:28.627Z,31.30
2022-11-29T15:16:10.793Z,28.93
2022-11-29T15:18:43.739Z,31.37
2022-11-29T15:21:29.348Z,30.37
2022-11-29T15:24:09.279Z,30.53
2022-11-29T15:26:36.118Z,30.27
2022-11-29T15:29:17.071Z,30.23
2022-11-29T15:31:53.104Z,31.03
2022-11-29T15:34:34.873Z,29.47
2022-11-29T15:37:01.917Z,31.27
2022-11-29T15:39:32.191Z,32.37
2022-11-29T15:42:11.578Z,33.00
2022-11-29T15:44:45.745Z,30.17
2022-11-29T15:47:24.615Z,31.50
2022-11-29T15:49:53.112Z,32.90
2022-11-29T15:52:30.285Z,32.80
2022-11-29T15:55:03.301Z,31.47
2022-11-29T15:57:34.516Z,31.00
2022-11-29T16:00:23.103Z,33.07
2022-11-29T16:03:00.950Z,31.70
2022-11-29T16:05:38.400Z,31.47
2022-11-29T16:08:13.555Z,32.07
2022-11-29T16:10:50.310Z,32.30
2022-11-29T16:13:23.253Z,32.30
2022-11-29T16:16:03.575Z,32.67
2022-11-29T16:18:30.508Z,32.87
2022-11-29T16:21:06.033Z,34.03
2022-11-29T16:23:43.679Z,33.00
2022-11-29T16:26:30.361Z,33.13
2022-11-29T16:29:00.123Z,31.97
2022-11-29T16:31:35.655Z,32.17
2022-11-29T16:34:15.517Z,33.20
2022-11-29T16:36:42.265Z,33.60
2022-11-29T16:39:24.347Z,31.60
2022-11-29T16:42:24.899Z,33.60
2022-11-29T16:45:01.819Z,33.17
2022-11-29T16:47:46.720Z,33.83
2022-11-29T16:50:21.790Z,33.70
2022-11-29T16:52:54.868Z,32.63
2022-11-29T16:55:23.626Z,35.00
2022-11-29T16:57:52.120Z,33.50
2022-11-29T17:00:30.688Z,34.63
2022-11-29T17:02:58.534Z,35.03
2022-11-29T17:05:25.698Z,34.77
2022-11-29T17:07:52.783Z,32.90
2022-11-29T17:10:23.425Z,35.03
2022-11-29T17:12:50.409Z,35.00
2022-11-29T17:15:17.169Z,33.83
2022-11-29T17:17:43.932Z,35.33
2022-11-29T17:20:12.572Z,33.67
2022-11-29T17:22:39.691Z,34.70
2022-11-29T17:25:06.862Z,34.07
2022-11-29T17:27:33.647Z,33.80
2022-11-29T17:30:00.477Z,34.07
2022-11-29T17:32:27.356Z,34.93
2022-11-29T17:34:54.273Z,34.87
2022-11-29T17:37:20.984Z,35.70
2022-11-29T17:39:49.085Z,35.60
2022-11-29T17:42:15.934Z,34.00
2022-11-29T17:44:42.741Z,35.17
2022-11-29T17:47:09.439Z,35.60
2022-11-29T17:49:36.171Z,35.27
2022-11-29T17:52:03.014Z,34.70
2022-11-29T17:54:32.963Z,34.20
2022-11-29T17:57:00.844Z,32.70
2022-11-29T17:59:27.717Z,34.83
2022-11-29T18:01:54.469Z,33.77
2022-11-29T18:04:21.838Z,36.13
2022-11-29T18:06:51.700Z,33.53
2022-11-29T18:09:19.602Z,35.30
2022-11-29T18:11:49.642Z,34.07
2022-11-29T18:14:20.266Z,36.67
2022-11-29T18:16:47.145Z,33.67
2022-11-29T18:19:17.247Z,34.17
2022-11-29T18:21:44.446Z,34.33
2022-11-29T18:24:11.291Z,35.40
2022-11-29T18:26:38.795Z,36.20
2022-11-29T18:29:06.512Z,35.60
2022-11-29T18:31:36.094Z,35.23
2022-11-29T18:34:07.241Z,34.57
2022-11-29T18:36:45.678Z,34.17
2022-11-29T18:39:23.595Z,34.70
2022-11-29T18:41:50.924Z,34.73
2022-11-29T18:44:20.242Z,35.53
2022-11-29T18:46:47.768Z,36.37
2022-11-29T18:49:17.148Z,37.47
2022-11-29T18:51:45.690Z,37.60
2022-11-29T18:54:17.325Z,37.03
2022-11-29T18:56:45.072Z,37.17
2022-11-29T18:59:16.598Z,35.57
2022-11-29T19:01:45.146Z,37.07
2022-11-29T19:04:14.933Z,37.17
2022-11-29T19:06:42.731Z,37.07
2022-11-29T19:09:15.451Z,38.00
2022-11-29T19:11:45.370Z,36.10
2022-11-29T19:14:12.868Z,35.13
2022-11-29T19:16:44.955Z,36.47
2022-11-29T19:19:12.080Z,37.77
2022-11-29T19:21:40.042Z,35.60
2022-11-29T19:24:13.662Z,35.50
2022-11-29T19:26:42.959Z,36.63
2022-11-29T19:29:09.875Z,38.73
2022-11-29T19:31:39.344Z,35.20
2022-11-29T19:34:06.621Z,35.47
2022-11-29T19:36:34.047Z,36.10
2022-11-29T19:39:01.983Z,35.50
2022-11-29T19:41:31.461Z,35.43
2022-11-29T19:44:03.660Z,34.43
2022-11-29T19:46:34.211Z,36.00
2022-11-29T19:49:01.658Z,35.07
2022-11-29T19:51:30.326Z,35.27
2022-11-29T19:53:59.512Z,34.90
2022-11-29T19:56:26.767Z,33.83
2022-11-29T19:58:54.239Z,34.10
2022-11-29T20:01:25.609Z,34.23
2022-11-29T20:03:52.835Z,35.73
2022-11-29T20:06:19.544Z,37.63
2022-11-29T20:08:46.942Z,34.67
2022-11-29T20:11:17.989Z,36.83
2022-11-29T20:13:47.630Z,36.90
2022-11-29T20:16:17.158Z,36.20
2022-11-29T20:18:50.432Z,34.90
2022-11-29T20:21:27.137Z,35.83
2022-11-29T20:23:59.743Z,37.77
2022-11-29T20:26:27.966Z,37.60
2022-11-29T20:28:54.889Z,37.00
2022-11-29T20:31:23.239Z,36.80
2022-11-29T20:33:52.619Z,35.13
2022-11-29T20:36:28.874Z,36.07
2022-11-29T20:39:08.287Z,35.40
2022-11-29T20:41:53.477Z,36.10
2022-11-29T20:44:24.233Z,34.57
2022-11-29T20:46:51.028Z,35.77
2022-11-29T20:49:18.225Z,35.83
2022-11-29T20:51:55.737Z,36.77
2022-11-29T20:54:22.475Z,35.80
2022-11-29T20:56:49.402Z,37.07
2022-11-29T20:59:16.240Z,35.07
2022-11-29T21:01:43.069Z,36.13
2022-11-29T21:04:09.831Z,37.93
2022-11-29T21:06:39.440Z,37.47
2022-11-29T21:09:06.805Z,36.80
2022-11-29T21:11:33.797Z,37.17
2022-11-29T21:14:03.886Z,37.97
2022-11-29T21:16:31.941Z,38.53
2022-11-29T21:19:01.657Z,36.63
2022-11-29T21:21:41.870Z,37.40
2022-11-29T21:24:29.310Z,34.90
2022-11-29T21:26:56.088Z,36.33
2022-11-29T21:29:23.956Z,38.07
2022-11-29T21:31:53.729Z,34.67
2022-11-29T21:34:22.822Z,35.80
2022-11-29T21:36:57.898Z,37.23
2022-11-29T21:39:33.364Z,36.53
2022-11-29T21:42:00.155Z,37.53
2022-11-29T21:44:26.810Z,36.97
2022-11-29T21:46:53.633Z,38.07
2022-11-29T21:49:20.355Z,37.20
2022-11-29T21:51:47.070Z,39.57
2022-11-29T21:54:13.853Z,38.23
2022-11-29T21:56:40.537Z,36.60
2022-11-29T21:59:07.286Z,36.50
2022-11-29T22:01:34.232Z,36.40
2022-11-29T22:04:01.221Z,37.93
2022-11-29T22:06:29.432Z,36.60
2022-11-29T22:08:56.956Z,37.50
2022-11-29T22:11:36.176Z,37.30
2022-11-29T22:14:14.230Z,37.97
2022-11-29T22:16:58.800Z,36.87
2022-11-29T22:19:33.569Z,38.27
2022-11-29T22:22:03.953Z,38.03
2022-11-29T22:24:34.148Z,37.73
2022-11-29T22:27:01.622Z,38.03
2022-11-29T22:29:29.353Z,36.80
2022-11-29T22:31:57.294Z,38.13
2022-11-29T22:34:27.142Z,36.20
2022-11-29T22:36:54.395Z,38.77
2022-11-29T22:39:21.098Z,38.83
2022-11-29T22:41:53.562Z,38.73
2022-11-29T22:44:21.340Z,37.50
2022-11-29T22:46:48.131Z,38.47
2022-11-29T22:49:15.061Z,38.87
2022-11-29T22:51:41.859Z,38.47
2022-11-29T22:54:11.323Z,39.27
2022-11-29T22:56:40.388Z,37.20
2022-11-29T22:59:07.663Z,38.53
2022-11-29T23:01:36.932Z,37.87
2022-11-29T23:04:07.069Z,37.80
2022-11-29T23:06:39.199Z,38.17
2022-11-29T23:09:17.305Z,38.80
2022-11-29T23:11:45.698Z,37.37
2022-11-29T23:14:13.086Z,39.13
2022-11-29T23:16:40.653Z,38.53
2022-11-29T23:19:07.432Z,38.40
2022-11-29T23:21:39.745Z,38.37
2022-11-29T23:24:06.937Z,39.17
2022-11-29T23:26:37.575Z,38.30
2022-11-29T23:29:06.190Z,38.47
2022-11-29T23:31:33.616Z,38.07
2022-11-29T23:34:01.333Z,39.27
2022-11-29T23:36:28.236Z,37.87
2022-11-29T23:38:54.942Z,40.53
2022-11-29T23:41:21.664Z,40.37
2022-11-29T23:43:51.116Z,37.90
2022-11-29T23:46:20.849Z,38.87
2022-11-29T23:48:48.520Z,39.70
2022-11-29T23:51:16.357Z,39.87
2022-11-29T23:53:43.387Z,37.93
2022-11-29T23:56:15.963Z,40.37
2022-11-29T23:58:45.803Z,39.03
